createdAt,value
2024-03-10T00:01:12.411Z,1.10
2024-03-10T00:04:34.170Z,1.25
2024-03-10T00:07:56.495Z,1.65
2024-03-10T00:11:19.008Z,0.98
2024-03-10T00:14:42.401Z,1.10
2024-03-10T00:18:03.888Z,0.98
2024-03-10T00:21:25.479Z,1.45
2024-03-10T00:24:47.155Z,1.35
2024-03-10T00:28:10.239Z,1.25
2024-03-10T00:31:33.126Z,0.95
2024-03-10T00:34:54.791Z,1.00
2024-03-10T00:38:17.006Z,0.80
2024-03-10T00:41:38.748Z,0.57
2024-03-10T00:45:00.420Z,0.60
2024-03-10T00:48:23.609Z,0.88
2024-03-10T00:51:46.580Z,0.90
2024-03-10T00:55:11.148Z,0.70
2024-03-10T00:58:34.253Z,0.82
2024-03-10T01:01:56.260Z,0.70
2024-03-10T01:05:20.634Z,0.73
2024-03-10T01:08:42.490Z,0.98
2024-03-10T01:12:04.284Z,0.90
2024-03-10T01:15:26.297Z,0.90
2024-03-10T01:18:48.638Z,0.82
2024-03-10T01:22:12.496Z,0.93
2024-03-10T01:25:34.158Z,1.40
2024-03-10T01:28:56.051Z,0.90
2024-03-10T01:32:17.903Z,0.95
2024-03-10T01:35:41.306Z,0.80
2024-03-10T01:39:04.710Z,1.25
2024-03-10T01:42:27.068Z,0.90
2024-03-10T01:45:50.778Z,1.10
2024-03-10T01:49:12.446Z,0.73
2024-03-10T01:52:35.940Z,0.70
2024-03-10T01:56:00.531Z,1.40
2024-03-10T01:59:23.687Z,1.13
2024-03-10T02:02:45.410Z,1.30
2024-03-10T02:06:10.633Z,0.80
2024-03-10T02:09:34.580Z,1.13
2024-03-10T02:12:57.795Z,1.13
2024-03-10T02:16:19.384Z,0.90
2024-03-10T02:19:41.294Z,1.17
2024-03-10T02:23:03.086Z,0.90
2024-03-10T02:26:33.595Z,1.10
2024-03-10T02:30:20.255Z,1.52
2024-03-10T02:33:59.257Z,1.20
2024-03-10T02:37:38.464Z,0.80
2024-03-10T02:44:57.895Z,1.00
2024-03-10T02:48:20.614Z,0.70
2024-03-10T02:51:43.765Z,0.73
2024-03-10T02:55:05.857Z,0.95
2024-03-10T02:58:27.682Z,0.90
2024-03-10T03:01:50.750Z,1.15
2024-03-10T03:05:12.812Z,1.15
2024-03-10T03:08:34.730Z,0.90
2024-03-10T03:11:57.420Z,1.00
2024-03-10T03:15:19.895Z,1.17
2024-03-10T03:18:45.124Z,1.00
2024-03-10T03:22:08.242Z,1.08
2024-03-10T03:25:30.373Z,1.30
2024-03-10T03:28:51.895Z,1.23
2024-03-10T03:32:13.762Z,1.50
2024-03-10T03:35:40.171Z,1.30
2024-03-10T03:39:01.827Z,1.33
2024-03-10T03:42:23.424Z,1.23
2024-03-10T03:45:45.149Z,0.93
2024-03-10T03:49:06.910Z,1.33
2024-03-10T03:52:30.254Z,1.23
2024-03-10T03:55:52.224Z,0.93
2024-03-10T03:59:14.185Z,1.27
2024-03-10T04:02:35.849Z,1.05
2024-03-10T04:05:57.553Z,1.50
2024-03-10T04:09:20.492Z,1.20
2024-03-10T04:12:42.079Z,1.27
2024-03-10T04:16:04.105Z,1.42
2024-03-10T04:19:25.725Z,1.00
2024-03-10T04:22:49.929Z,1.45
2024-03-10T04:26:13.328Z,1.00
2024-03-10T04:29:35.561Z,0.80
2024-03-10T04:32:57.729Z,1.00
2024-03-10T04:36:20.783Z,1.25
2024-03-10T04:39:42.820Z,1.55
2024-03-10T04:43:06.797Z,1.27
2024-03-10T04:46:29.173Z,1.55
2024-03-10T04:49:50.922Z,1.50
2024-03-10T04:53:12.884Z,1.40
2024-03-10T04:56:36.636Z,1.10
2024-03-10T04:59:59.981Z,0.88
2024-03-10T05:03:21.770Z,1.23
2024-03-10T05:06:43.827Z,1.30
2024-03-10T05:10:05.897Z,1.50
2024-03-10T05:13:27.779Z,1.52
2024-03-10T05:16:51.047Z,1.65
2024-03-10T05:20:13.746Z,1.60
2024-03-10T05:23:35.572Z,1.75
2024-03-10T05:26:57.286Z,1.67
2024-03-10T05:30:19.726Z,1.63
2024-03-10T05:33:42.792Z,2.20
2024-03-10T05:37:06.232Z,1.77
2024-03-10T05:40:28.074Z,2.42
2024-03-10T05:43:50.097Z,2.22
2024-03-10T05:47:12.607Z,1.90
2024-03-10T05:50:35.690Z,2.13
2024-03-10T05:53:57.884Z,2.63
2024-03-10T05:57:19.831Z,2.15
2024-03-10T06:00:41.787Z,2.40
2024-03-10T06:04:03.526Z,2.40
2024-03-10T06:07:26.662Z,2.80
2024-03-10T06:10:49.143Z,3.92
2024-03-10T06:14:11.222Z,4.90
2024-03-10T06:17:34.944Z,3.08
2024-03-10T06:21:14.004Z,4.30
2024-03-10T06:24:54.517Z,5.05
2024-03-10T06:28:16.761Z,5.13
2024-03-10T06:31:40.029Z,6.10
2024-03-10T06:35:02.172Z,5.97
2024-03-10T06:38:23.984Z,6.05
2024-03-10T06:41:48.294Z,5.97
2024-03-10T06:45:11.046Z,5.40
2024-03-10T06:48:33.024Z,4.53
2024-03-10T06:51:54.759Z,6.75
2024-03-10T06:55:17.098Z,13.43
2024-03-10T06:58:40.044Z,6.75
2024-03-10T07:02:01.963Z,6.20
2024-03-10T07:05:26.113Z,5.95
2024-03-10T07:08:47.788Z,6.13
2024-03-10T07:12:09.991Z,21.23
2024-03-10T07:15:33.106Z,9.15
2024-03-10T07:18:55.666Z,5.78
2024-03-10T07:22:17.444Z,6.13
2024-03-10T07:25:39.089Z,5.32
2024-03-10T07:29:00.690Z,3.63
2024-03-10T07:32:23.710Z,3.25
2024-03-10T07:35:45.537Z,3.90
2024-03-10T07:39:08.561Z,3.38
2024-03-10T07:42:30.721Z,2.60
2024-03-10T07:45:52.848Z,2.92
2024-03-10T07:49:15.831Z,4.07
2024-03-10T07:52:37.489Z,3.53
2024-03-10T07:56:00.563Z,3.05
2024-03-10T07:59:23.388Z,2.28
2024-03-10T08:02:45.722Z,2.28
2024-03-10T08:06:09.152Z,2.15
2024-03-10T08:09:30.713Z,1.90
2024-03-10T08:12:53.604Z,1.55
2024-03-10T08:16:16.182Z,1.40
2024-03-10T08:19:39.485Z,1.42
2024-03-10T08:23:06.122Z,2.13
2024-03-10T08:26:28.392Z,1.65
2024-03-10T08:29:50.376Z,1.35
2024-03-10T08:33:12.120Z,1.63
2024-03-10T08:36:34.656Z,1.63
2024-03-10T08:39:57.890Z,1.65
2024-03-10T08:43:19.868Z,1.38
2024-03-10T08:46:41.686Z,1.73
2024-03-10T08:50:04.110Z,1.40
2024-03-10T08:53:27.443Z,2.08
2024-03-10T08:56:52.572Z,1.73
2024-03-10T09:00:15.968Z,1.30
2024-03-10T09:03:39.093Z,1.38
2024-03-10T09:07:01.157Z,1.48
2024-03-10T09:10:25.109Z,1.70
2024-03-10T09:13:48.168Z,1.35
2024-03-10T09:17:10.210Z,0.82
2024-03-10T09:20:32.529Z,1.00
2024-03-10T09:23:54.579Z,1.30
2024-03-10T09:27:16.439Z,1.50
2024-03-10T09:30:40.503Z,1.50
2024-03-10T09:34:04.986Z,1.60
2024-03-10T09:37:30.025Z,1.50
2024-03-10T09:40:52.035Z,1.77
2024-03-10T09:44:18.984Z,1.60
2024-03-10T09:47:43.812Z,1.20
2024-03-10T09:51:07.009Z,1.40
2024-03-10T09:54:28.412Z,1.30
2024-03-10T09:57:54.444Z,1.45
2024-03-10T10:01:19.893Z,1.20
2024-03-10T10:04:54.921Z,0.82
2024-03-10T10:08:16.819Z,1.73
2024-03-10T10:11:38.962Z,1.40
2024-03-10T10:15:00.882Z,2.10
2024-03-10T10:18:24.406Z,2.00
2024-03-10T10:21:48.808Z,2.20
2024-03-10T10:25:15.784Z,1.95
2024-03-10T10:28:39.007Z,2.28
2024-03-10T10:32:02.229Z,2.75
2024-03-10T10:35:23.923Z,3.63
2024-03-10T10:38:49.690Z,2.30
2024-03-10T10:42:21.647Z,2.45
2024-03-10T10:45:52.718Z,2.03
2024-03-10T10:49:18.188Z,1.58
2024-03-10T10:52:45.091Z,1.75
2024-03-10T10:56:08.971Z,1.40
2024-03-10T10:59:30.841Z,1.83
2024-03-10T11:03:10.860Z,1.30
2024-03-10T11:06:35.670Z,1.55
2024-03-10T11:09:57.353Z,1.92
2024-03-10T11:13:20.585Z,1.65
2024-03-10T11:16:42.500Z,1.45
2024-03-10T11:20:05.532Z,1.23
2024-03-10T11:23:37.917Z,1.38
2024-03-10T11:27:20.081Z,1.50
2024-03-10T11:30:53.522Z,1.25
2024-03-10T11:34:17.753Z,1.20
2024-03-10T11:37:40.136Z,1.30
2024-03-10T11:41:09.692Z,1.33
2024-03-10T11:44:32.523Z,0.90
2024-03-10T11:47:56.731Z,1.05
2024-03-10T11:51:19.315Z,1.30
2024-03-10T11:54:41.404Z,0.80
2024-03-10T11:58:03.163Z,1.17
2024-03-10T12:01:25.081Z,1.50
2024-03-10T12:04:49.708Z,1.55
2024-03-10T12:08:11.779Z,1.52
2024-03-10T12:11:34.846Z,2.10
2024-03-10T12:14:56.924Z,2.15
2024-03-10T12:18:19.724Z,1.10
2024-03-10T12:21:43.369Z,1.70
2024-03-10T12:25:10.799Z,1.50
2024-03-10T12:28:32.894Z,2.08
2024-03-10T12:31:56.131Z,2.53
2024-03-10T12:35:18.176Z,1.50
2024-03-10T12:38:42.337Z,2.70
2024-03-10T12:42:06.018Z,2.88
2024-03-10T12:45:29.044Z,1.42
2024-03-10T12:48:51.040Z,1.38
2024-03-10T12:52:12.826Z,1.33
2024-03-10T12:55:36.716Z,1.40
2024-03-10T12:58:59.404Z,1.30
2024-03-10T13:02:21.296Z,1.73
2024-03-10T13:05:44.038Z,1.25
2024-03-10T13:09:06.025Z,1.70
2024-03-10T13:12:29.235Z,1.65
2024-03-10T13:15:52.930Z,1.05
2024-03-10T13:19:14.862Z,0.80
2024-03-10T13:22:36.811Z,1.00
2024-03-10T13:25:58.714Z,0.80
2024-03-10T13:29:22.174Z,1.00
2024-03-10T13:32:44.614Z,1.67
2024-03-10T13:36:14.322Z,1.48
2024-03-10T13:39:39.909Z,1.33
2024-03-10T13:43:01.847Z,1.10
2024-03-10T13:46:25.106Z,1.00
2024-03-10T13:49:46.648Z,1.23
2024-03-10T13:53:10.977Z,1.00
2024-03-10T13:56:33.412Z,1.50
2024-03-10T13:59:56.186Z,1.17
2024-03-10T14:03:21.182Z,1.10
2024-03-10T14:06:42.905Z,0.95
2024-03-10T14:10:04.884Z,1.10
2024-03-10T14:13:26.982Z,1.10
2024-03-10T14:16:50.932Z,1.08
2024-03-10T14:20:16.584Z,1.30
2024-03-10T14:23:40.280Z,1.40
2024-03-10T14:27:02.393Z,1.20
2024-03-10T14:30:26.558Z,0.88
2024-03-10T14:33:48.159Z,0.98
2024-03-10T14:37:11.659Z,1.20
2024-03-10T14:40:34.436Z,0.90
2024-03-10T14:43:56.695Z,1.40
2024-03-10T14:47:18.408Z,0.70
2024-03-10T14:50:41.963Z,1.52
2024-03-10T14:54:05.138Z,0.95
2024-03-10T14:57:28.437Z,1.00
2024-03-10T15:00:51.753Z,1.00
2024-03-10T15:04:14.101Z,1.05
2024-03-10T15:07:37.108Z,1.10
2024-03-10T15:11:01.084Z,1.20
2024-03-10T15:14:23.012Z,0.90
2024-03-10T15:17:45.532Z,2.80
2024-03-10T15:21:07.302Z,3.97
2024-03-10T15:24:29.231Z,6.25
2024-03-10T15:27:52.460Z,1.70
2024-03-10T15:31:14.038Z,1.65
2024-03-10T15:34:35.958Z,1.02
2024-03-10T15:37:58.320Z,1.27
2024-03-10T15:41:20.585Z,1.10
2024-03-10T15:44:43.843Z,1.02
2024-03-10T15:48:06.844Z,1.23
2024-03-10T15:51:30.540Z,1.13
2024-03-10T15:54:52.517Z,1.15
2024-03-10T15:58:14.371Z,1.73
2024-03-10T16:01:37.607Z,1.42
2024-03-10T16:05:00.050Z,1.20
2024-03-10T16:08:23.905Z,2.42
2024-03-10T16:11:46.559Z,3.40
2024-03-10T16:15:16.247Z,7.20
2024-03-10T16:18:41.663Z,6.38
2024-03-10T16:22:05.439Z,4.03
2024-03-10T16:25:27.381Z,5.07
2024-03-10T16:28:49.224Z,3.78
2024-03-10T16:32:11.125Z,3.05
2024-03-10T16:35:34.580Z,3.53
2024-03-10T16:38:58.774Z,3.80
2024-03-10T16:42:20.794Z,4.28
2024-03-10T16:45:42.630Z,2.97
2024-03-10T16:49:04.618Z,4.38
2024-03-10T16:52:27.797Z,3.55
2024-03-10T16:55:50.989Z,4.70
2024-03-10T16:59:13.198Z,3.10
2024-03-10T17:02:35.095Z,2.92
2024-03-10T17:05:57.070Z,4.05
2024-03-10T17:09:20.631Z,3.83
2024-03-10T17:12:42.742Z,3.70
2024-03-10T17:16:07.524Z,5.00
2024-03-10T17:19:30.834Z,3.63
2024-03-10T17:22:53.081Z,4.47
2024-03-10T17:26:17.481Z,5.72
2024-03-10T17:29:41.448Z,8.05
2024-03-10T17:33:03.253Z,5.40
2024-03-10T17:36:25.981Z,6.68
2024-03-10T17:39:48.071Z,5.68
2024-03-10T17:43:12.208Z,5.18
2024-03-10T17:46:35.150Z,6.55
2024-03-10T17:49:56.889Z,6.53
2024-03-10T17:53:18.654Z,6.10
2024-03-10T17:56:40.516Z,6.22
2024-03-10T18:00:05.416Z,5.80
2024-03-10T18:03:28.389Z,8.20
2024-03-10T18:06:50.766Z,7.63
2024-03-10T18:10:13.474Z,6.60
2024-03-10T18:13:35.469Z,6.68
2024-03-10T18:16:59.753Z,7.20
2024-03-10T18:20:24.207Z,7.18
2024-03-10T18:23:45.918Z,6.28
2024-03-10T18:27:08.477Z,9.57
2024-03-10T18:30:30.491Z,9.55
2024-03-10T18:33:53.889Z,10.52
2024-03-10T18:37:15.445Z,12.30
2024-03-10T18:40:37.199Z,14.10
2024-03-10T18:44:01.111Z,11.13
2024-03-10T18:47:23.249Z,11.80
2024-03-10T18:50:51.261Z,14.90
2024-03-10T18:54:17.053Z,17.70
2024-03-10T18:57:39.413Z,18.08
2024-03-10T19:01:01.142Z,15.55
2024-03-10T19:04:23.748Z,14.10
2024-03-10T19:07:47.179Z,12.82
2024-03-10T19:11:10.047Z,13.93
2024-03-10T19:14:32.486Z,14.63
2024-03-10T19:17:54.450Z,14.30
2024-03-10T19:21:18.095Z,15.80
2024-03-10T19:24:42.154Z,14.57
2024-03-10T19:28:03.992Z,16.15
2024-03-10T19:31:25.741Z,14.70
2024-03-10T19:34:47.744Z,13.95
2024-03-10T19:38:11.971Z,15.77
2024-03-10T19:41:37.207Z,14.35
2024-03-10T19:44:58.981Z,13.40
2024-03-10T19:48:20.855Z,14.15
2024-03-10T19:51:42.757Z,15.25
2024-03-10T19:55:05.215Z,16.27
2024-03-10T19:58:28.531Z,13.90
2024-03-10T20:01:51.380Z,15.93
2024-03-10T20:05:15.088Z,15.35
2024-03-10T20:08:37.593Z,14.68
2024-03-10T20:12:00.025Z,14.32
2024-03-10T20:15:23.206Z,12.27
2024-03-10T20:18:45.087Z,11.02
2024-03-10T20:22:07.485Z,10.30
2024-03-10T20:25:32.097Z,13.00
2024-03-10T20:28:54.116Z,11.90
2024-03-10T20:32:17.793Z,12.10
2024-03-10T20:35:39.559Z,13.38
2024-03-10T20:39:01.445Z,12.88
2024-03-10T20:42:23.806Z,11.80
2024-03-10T20:45:52.735Z,11.65
2024-03-10T20:49:22.106Z,14.57
2024-03-10T20:52:43.921Z,12.43
2024-03-10T20:56:06.271Z,13.85
2024-03-10T20:59:28.269Z,14.40
2024-03-10T21:02:50.678Z,13.65
2024-03-10T21:06:14.387Z,14.82
2024-03-10T21:09:35.888Z,12.18
2024-03-10T21:12:58.067Z,11.80
2024-03-10T21:16:20.423Z,12.70
2024-03-10T21:19:42.741Z,11.90
2024-03-10T21:23:07.020Z,14.70
2024-03-10T21:26:29.348Z,14.23
2024-03-10T21:29:51.319Z,11.18
2024-03-10T21:33:13.255Z,9.30
2024-03-10T21:36:35.193Z,8.95
2024-03-10T21:39:58.560Z,8.65
2024-03-10T21:43:22.049Z,9.82
2024-03-10T21:46:44.201Z,10.02
2024-03-10T21:50:07.773Z,10.98
2024-03-10T21:53:30.030Z,11.10
2024-03-10T21:56:55.107Z,9.18
2024-03-10T22:00:18.359Z,8.80
2024-03-10T22:03:40.670Z,7.95
2024-03-10T22:07:02.676Z,7.13
2024-03-10T22:10:24.704Z,9.60
2024-03-10T22:13:47.769Z,8.43
2024-03-10T22:17:10.129Z,8.18
2024-03-10T22:20:32.073Z,8.50
2024-03-10T22:23:53.870Z,8.73
2024-03-10T22:27:15.484Z,8.60
2024-03-10T22:30:38.654Z,9.80
2024-03-10T22:33:59.995Z,9.05
2024-03-10T22:37:21.553Z,11.13
2024-03-10T22:40:43.165Z,10.57
2024-03-10T22:44:06.242Z,9.20
2024-03-10T22:47:29.221Z,9.45
2024-03-10T22:50:52.747Z,10.20
2024-03-10T22:54:14.837Z,8.35
2024-03-10T22:57:36.703Z,9.75
2024-03-10T23:01:00.869Z,8.68
2024-03-10T23:04:24.501Z,8.10
2024-03-10T23:07:46.918Z,7.78
2024-03-10T23:11:09.650Z,7.25
2024-03-10T23:14:32.863Z,5.63
2024-03-10T23:17:55.006Z,7.10
2024-03-10T23:21:18.324Z,7.57
2024-03-10T23:24:39.953Z,7.53
2024-03-10T23:28:02.158Z,7.00
2024-03-10T23:31:24.547Z,7.63
2024-03-10T23:34:46.432Z,7.82
2024-03-10T23:38:09.745Z,7.57
2024-03-10T23:41:31.545Z,7.65
2024-03-10T23:44:53.734Z,7.40
2024-03-10T23:48:15.565Z,7.53
2024-03-10T23:51:37.410Z,7.80
2024-03-10T23:55:00.203Z,6.93
2024-03-10T23:58:22.313Z,7.07
